Aviation Digital Data Service (ADDS)

Output produced by METARs form (2109 UTC 24 March 2019)
found at http://www.aviationweather.gov/metar/data/
 
KEAR 241801Z 2418/2518 01011KT P6SM BKN012 BKN040 
     FM242100 36012KT P6SM BKN021 
     FM250100 01009KT P6SM BKN050 
     FM250900 02007KT P6SM OVC011
       
KEAT 241732Z 2418/2518 32008KT P6SM -RA BKN040 OVC050 
     FM242300 VRB04KT P6SM -RA BKN025 OVC040 
     FM250700 33003KT P6SM BKN050 
     FM251000 35004KT P6SM SCT250
       
KEAU 241720Z 2418/2518 04009KT P6SM BKN060 
     FM242000 04012G19KT P6SM BKN045 
     FM250500 03008KT P6SM SCT200 
     FM251600 08005KT P6SM SKC
       
KECG 241720Z 2418/2518 20009KT P6SM BKN250 
     FM251100 24007KT P6SM BKN150
       
KEED 241720Z 2418/2518 VRB06KT P6SM FEW250 
     FM250500 28007KT P6SM FEW250 
     FM251400 VRB05KT P6SM SCT250
       
KEET 241720Z 2418/2518 19008KT P6SM BKN250 
     FM250100 00000KT P6SM SCT150 BKN250 
     FM251400 22006KT P6SM VCSH OVC025
       
TAF KEFD 242000Z 2420/2602 17012KT 9999 BKN030 QNH3002INS 
     BECMG 2502/2503 17006KT 9999 BKN015 QNH3006INS 
     BECMG 2506/2507 19006KT 6000 BR OVC008 QNH3003INS 
     BECMG 2510/2511 20006KT 1600 BR OVC004 QNH3003INS 
     BECMG 2514/2515 24006KT 4800 BR OVC008 QNH3012INS 
     BECMG 2516/2517 25009KT 9999 NSW BKN015 QNH3008INS 
     BECMG 2518/2519 26009KT 9999 SCT025 BKN050 QNH3003INS TX26/2421Z TN19/2511Z
       
KEGE 241740Z 2418/2518 VRB04KT P6SM VCSH BKN040 OVC070 
     TEMPO 2418/2420 4SM -SHRA BKN025 OVC040 
     FM242000 24012G20KT P6SM VCTS BKN040CB OVC060 
     TEMPO 2420/2424 3SM -TSRA BKN025CB OVC040 
     FM250000 24010KT P6SM VCSH SCT040 BKN050 
     FM250600 12006KT P6SM SCT050 BKN080 
     FM251200 VRB03KT P6SM FEW150
       
TAF KEGI 241700Z 2417/2523 17009KT 9999 FEW160 SCT250 QNH3019INS 
     BECMG 2511/2512 16006KT 4800 BR SCT010 QNH3014INS 
     BECMG 2514/2515 24012G18KT 9999 NSW FEW050 QNH3007INS 
     BECMG 2519/2520 24012G18KT 9999 BKN040 QNH3006INS TX25/2420Z TN10/2513Z
       
KEKN 241720Z 2418/2518 26005KT P6SM BKN150 
     FM250000 26003KT P6SM OVC060 
     FM250500 22003KT P6SM -SHRA OVC060 
     FM250800 24003KT P6SM -SHRA OVC025 
     FM251300 VRB03KT 4SM -SHRA OVC015
       
KZZV 241720Z 2418/2518 19006KT P6SM SCT120 BKN200 
     FM250100 19003KT P6SM OVC050 
     FM250600 27003KT P6SM OVC025 
     FM251300 02005KT 5SM -SHRA BR OVC015
       
KELP 241741Z 2418/2518 27014G20KT P6SM FEW250 
     FM250300 33007KT P6SM SKC 
     FM251000 03005KT P6SM SCT250
       
KELY 241731Z 2418/2518 29006KT P6SM SCT030 SCT200 
     FM250200 VRB04KT P6SM BKN200 
     FM250600 18007KT P6SM SKC 
     FM251700 17012G20KT P6SM SCT250
       
KEKO 241731Z 2418/2518 24013KT P6SM BKN035 
     FM250300 VRB03KT P6SM SCT200 
     FM250800 VRB03KT P6SM VCFG SCT007 SCT200 
     FM251500 09006KT P6SM BKN250
       
TAF KEND 241800Z 2418/2524 32009KT 9999 FEW150 QNH3000INS 
     BECMG 2502/2503 36009KT 9999 BKN040 OVC150 510102 QNH3011INS 
     BECMG 2511/2512 35009KT 8000 BR OVC007 510102 QNH3019INS 
     BECMG 2514/2515 01010G15KT 9999 NSW SCT010 BKN018 QNH3026INS 
     BECMG 2518/2519 01010G15KT 9999 FEW020 SCT080 QNH3025INS TX19/2421Z
TN06/2511Z
       
KENV 241852Z 2419/2518 29013G20KT P6SM SCT060 
     FM250200 31006KT P6SM SKC 
     FM251400 08003KT P6SM SKC
       
KENW 242025Z 2420/2518 VRB04KT P6SM -RA OVC050 
     FM242200 04011G19KT P6SM VCSH OVC035 
     FM242300 03014G22KT P6SM OVC030 
     FM251000 04013KT P6SM SCT040
       
KERI 241731Z 2418/2518 28011KT P6SM OVC120 
     FM250500 01007KT P6SM OVC060 
     FM250900 04012G20KT P6SM SCT025 BKN050 
     FM251200 04012G20KT P6SM BKN100
       
KEUG 241730Z 2418/2518 18004KT P6SM FEW005 
     FM241900 19005KT P6SM SCT250 
     FM242200 33004KT P6SM SCT040 BKN250 
     FM250300 35004KT P6SM BKN200 
     FM251300 18004KT P6SM SCT120 OVC200
       
KEUL 241720Z 2418/2518 24012KT P6SM VCSH OVC040 
     FM241900 25010KT P6SM OVC080 
     FM250100 VRB05KT P6SM SKC 
     FM250300 14007KT P6SM SCT120 
     FM251500 14015KT P6SM BKN100
       
KEVV 241734Z 2418/2518 16006KT 5SM -SHRA SCT030 OVC050 
     FM241900 19008KT P6SM SCT060 
     FM250200 VRB04KT 5SM -TSRA OVC025CB 
     FM250900 VRB04KT 5SM BR VCSH OVC012 
     FM251200 02007KT P6SM OVC008
       
KEVW 241952Z 2420/2518 22015G23KT P6SM BKN025 BKN070 
     FM242200 26015G25KT P6SM VCSH BKN050 
     FM250100 26010KT P6SM SCT040 
     FM251500 18007KT P6SM SKC
       
KEWN 241731Z 2418/2518 22010G15KT P6SM FEW250 
     FM242300 19005KT P6SM SCT250 
     FM251600 22010KT P6SM BKN100
       
KEWR 241950Z 2420/2524 23014G21KT P6SM BKN150 
     FM242300 24010KT P6SM BKN120 
     FM250200 25005KT P6SM OVC100 
     FM250900 27004KT P6SM OVC080 
     FM251100 34010KT P6SM FEW035 BKN060 
     FM251800 34007KT P6SM SCT080 BKN150
       
KEYW 241725Z 2418/2518 10012G20KT P6SM SCT028 BKN045 
     TEMPO 2418/2421 BKN028 
     FM250200 08008KT P6SM FEW030 SCT050